createdAt,value
2018-04-08T00:03:07.924Z,8.2
2018-04-08T00:08:08.900Z,8.2
2018-04-08T00:13:07.876Z,8.2
2018-04-08T00:18:08.900Z,8.1
2018-04-08T00:23:09.840Z,8.1
2018-04-08T00:28:08.800Z,8.1
2018-04-08T00:33:15.847Z,8
2018-04-08T00:38:16.110Z,8
2018-04-08T00:43:15.799Z,8
2018-04-08T00:48:15.746Z,8
2018-04-08T00:53:15.751Z,7.9
2018-04-08T00:58:15.685Z,7.9
2018-04-08T01:03:31.790Z,7.8
2018-04-08T01:08:29.764Z,7.9
2018-04-08T01:13:29.742Z,7.8
2018-04-08T01:18:32.735Z,7.8
2018-04-08T01:23:34.721Z,7.8
2018-04-08T01:28:32.678Z,7.7
2018-04-08T01:33:49.804Z,7.7
2018-04-08T01:38:50.784Z,7.7
2018-04-08T01:43:48.783Z,7.6
2018-04-08T01:48:49.722Z,7.7
2018-04-08T01:53:48.707Z,7.6
2018-04-08T01:58:48.667Z,7.6
2018-04-08T02:03:53.685Z,7.6
2018-04-08T02:08:54.631Z,7.5
2018-04-08T02:13:55.452Z,7.5
2018-04-08T02:19:00.660Z,7.5
2018-04-08T02:23:58.631Z,7.5
2018-04-08T02:28:59.592Z,7.4
2018-04-08T02:34:14.700Z,7.4
2018-04-08T02:39:12.670Z,7.4
2018-04-08T02:44:13.634Z,7.4
2018-04-08T02:49:15.624Z,7.4
2018-04-08T02:54:13.610Z,7.4
2018-04-08T02:59:13.565Z,7.3
2018-04-08T03:04:19.590Z,7.2
2018-04-08T03:09:20.562Z,7.1
2018-04-08T03:14:22.540Z,6.6
2018-04-08T03:19:26.556Z,6.5
2018-04-08T03:24:24.535Z,6.4
2018-04-08T03:29:24.499Z,6.2
2018-04-08T03:34:32.543Z,6
2018-04-08T03:39:31.496Z,5.9
2018-04-08T03:44:32.471Z,5.9
2018-04-08T03:49:31.457Z,5.8
2018-04-08T03:54:31.424Z,5.9
2018-04-08T03:59:32.397Z,5.6
2018-04-08T04:04:50.534Z,5.7
2018-04-08T04:09:47.513Z,5.6
2018-04-08T04:14:48.458Z,5.4
2018-04-08T04:19:51.454Z,5.4
2018-04-08T04:24:50.463Z,5.2
2018-04-08T04:29:51.392Z,5.2
2018-04-08T04:35:00.469Z,5.1
2018-04-08T04:39:59.448Z,5.1
2018-04-08T04:44:59.411Z,5.1
2018-04-08T04:50:00.368Z,5.1
2018-04-08T04:54:59.347Z,5.1
2018-04-08T04:59:59.324Z,5
2018-04-08T05:05:10.399Z,5
2018-04-08T05:10:12.355Z,4.9
2018-04-08T05:15:10.362Z,5.1
2018-04-08T05:20:17.358Z,5.2
2018-04-08T05:25:16.367Z,5.5
2018-04-08T05:30:16.323Z,5.8
2018-04-08T05:35:29.449Z,6
2018-04-08T05:40:30.378Z,6.1
2018-04-08T05:45:31.374Z,6.4
2018-04-08T05:50:31.332Z,6.6
2018-04-08T05:55:31.327Z,6.9
2018-04-08T06:00:32.283Z,7.1
2018-04-08T06:05:44.407Z,7.4
2018-04-08T06:10:45.365Z,7.7
2018-04-08T06:15:44.336Z,8
2018-04-08T06:20:44.314Z,8.3
2018-04-08T06:25:46.278Z,8.6
2018-04-08T06:30:44.241Z,8.9
2018-04-08T06:35:59.386Z,9.1
2018-04-08T06:40:57.286Z,9.4
2018-04-08T06:45:59.291Z,9.5
2018-04-08T06:51:01.294Z,9.7
2018-04-08T06:56:00.314Z,10.1
2018-04-08T07:01:01.228Z,10.3
2018-04-08T07:06:16.584Z,10.5
2018-04-08T07:11:14.313Z,10.9
2018-04-08T07:16:15.270Z,11.1
2018-04-08T07:21:18.266Z,11.2
2018-04-08T07:26:17.303Z,11.4
2018-04-08T07:31:17.220Z,11.3
2018-04-08T07:36:20.195Z,11.6
2018-04-08T07:41:24.267Z,11.4
2018-04-08T07:46:25.196Z,11.8
2018-04-08T07:51:26.815Z,11.9
2018-04-08T07:56:24.175Z,12.2
2018-04-08T08:01:25.095Z,12.6
2018-04-08T08:06:24.085Z,12.9
2018-04-08T08:11:45.257Z,13.2
2018-04-08T08:16:44.212Z,13.2
2018-04-08T08:21:44.183Z,13.6
2018-04-08T08:26:43.168Z,13.7
2018-04-08T08:31:43.129Z,14
2018-04-08T08:36:45.094Z,14.2
2018-04-08T08:41:43.149Z,14
2018-04-08T08:46:54.197Z,14.6
2018-04-08T08:51:54.117Z,14.5
2018-04-08T08:56:55.515Z,14.6
2018-04-08T09:01:58.096Z,14.9
2018-04-08T09:06:58.055Z,15
2018-04-08T09:11:59.035Z,15.5
2018-04-08T09:17:00.022Z,15.3
2018-04-08T09:22:10.103Z,15.9
2018-04-08T09:27:09.040Z,16
2018-04-08T09:32:09.031Z,16.3
2018-04-08T09:37:12.013Z,16.6
2018-04-08T09:42:12.812Z,16.6
2018-04-08T09:47:10.978Z,16.4
2018-04-08T09:52:19.023Z,16.7
2018-04-08T09:57:18.001Z,16.5
2018-04-08T10:02:18.981Z,16.6
2018-04-08T10:07:22.978Z,16.4
2018-04-08T10:12:23.923Z,16.3
2018-04-08T10:17:22.978Z,16.9
2018-04-08T10:22:36.011Z,17
2018-04-08T10:27:37.984Z,16.5
2018-04-08T10:32:35.963Z,17.1
2018-04-08T10:37:40.018Z,17
2018-04-08T10:42:40.924Z,17.2
2018-04-08T10:47:41.906Z,17.6
2018-04-08T10:52:52.989Z,17.5
2018-04-08T10:57:50.939Z,17.8
2018-04-08T11:02:51.924Z,18
2018-04-08T11:07:50.937Z,18
2018-04-08T11:12:50.899Z,18.2
2018-04-08T11:17:52.845Z,18.1
2018-04-08T11:23:04.955Z,18
2018-04-08T11:28:04.918Z,18.5
2018-04-08T11:33:08.931Z,18.7
2018-04-08T11:38:11.926Z,18.9
2018-04-08T11:43:09.893Z,18.9
2018-04-08T11:48:09.875Z,19.3
2018-04-08T11:53:19.932Z,19.4
2018-04-08T11:58:17.933Z,19.4
2018-04-08T12:03:18.878Z,19.2
2018-04-08T12:08:20.853Z,19.3
2018-04-08T12:13:19.923Z,19.4
2018-04-08T12:18:20.828Z,19.7
2018-04-08T12:23:31.914Z,20.1
2018-04-08T12:28:32.879Z,19.8
2018-04-08T12:33:31.912Z,20
2018-04-08T12:38:31.804Z,20.2
2018-04-08T12:43:32.832Z,19.9
2018-04-08T12:48:31.743Z,19.9
2018-04-08T12:53:31.725Z,20.3
2018-04-08T12:58:40.754Z,20.4
2018-04-08T13:03:39.713Z,20.3
2018-04-08T13:08:39.683Z,20.4
2018-04-08T13:13:41.660Z,20.3
2018-04-08T13:18:39.639Z,20.2
2018-04-08T13:23:40.593Z,20.4
2018-04-08T13:28:52.739Z,20.4
2018-04-08T13:33:52.685Z,20.5
2018-04-08T13:38:54.374Z,20.7
2018-04-08T13:43:52.638Z,20.6
2018-04-08T13:48:53.598Z,20.7
2018-04-08T13:53:52.561Z,20.7
2018-04-08T13:59:09.758Z,20.8
2018-04-08T14:04:09.666Z,20.8
2018-04-08T14:09:12.678Z,20.8
2018-04-08T14:14:11.608Z,20.9
2018-04-08T14:19:11.622Z,20.9
2018-04-08T14:24:10.573Z,20.9
2018-04-08T14:29:18.651Z,21.1
2018-04-08T14:34:19.581Z,20.9
2018-04-08T14:39:18.580Z,21
2018-04-08T14:44:21.564Z,21
2018-04-08T14:49:21.535Z,21
2018-04-08T14:54:22.505Z,21
2018-04-08T14:59:20.507Z,21.1
2018-04-08T15:04:35.591Z,21.1
2018-04-08T15:09:33.524Z,21.2
2018-04-08T15:14:34.493Z,21.1
2018-04-08T15:19:36.006Z,21
2018-04-08T15:24:36.482Z,21
2018-04-08T15:29:36.451Z,21
2018-04-08T15:34:37.417Z,21
2018-04-08T15:39:49.505Z,20.9
2018-04-08T15:44:50.482Z,20.9
2018-04-08T15:49:48.456Z,20.9
2018-04-08T15:54:49.401Z,20.8
2018-04-08T15:59:48.403Z,20.8
2018-04-08T16:04:49.358Z,20.7
2018-04-08T16:09:50.368Z,20.7
2018-04-08T16:15:00.416Z,20.6
2018-04-08T16:19:57.396Z,20.5
2018-04-08T16:24:59.367Z,20.5
2018-04-08T16:30:08.397Z,20.4
2018-04-08T16:35:05.381Z,20.4
2018-04-08T16:40:07.328Z,20.2
2018-04-08T16:45:25.470Z,20.1
2018-04-08T16:50:22.476Z,20
2018-04-08T16:55:22.409Z,19.9
2018-04-08T17:00:25.421Z,19.8
2018-04-08T17:05:25.383Z,19.6
2018-04-08T17:10:26.350Z,19.4
2018-04-08T17:15:26.330Z,19.2
2018-04-08T17:20:37.430Z,19
2018-04-08T17:25:36.395Z,18.8
2018-04-08T17:30:36.382Z,18.5
2018-04-08T17:35:38.331Z,18.3
2018-04-08T17:40:36.339Z,17.9
2018-04-08T17:45:37.273Z,17.6
2018-04-08T17:50:54.436Z,17.3
2018-04-08T17:55:53.352Z,17
2018-04-08T18:00:53.373Z,16.9
2018-04-08T18:05:55.331Z,16.8
2018-04-08T18:10:53.286Z,16.4
2018-04-08T18:15:53.262Z,16.3
2018-04-08T18:21:10.383Z,16
2018-04-08T18:26:09.381Z,16
2018-04-08T18:31:10.347Z,15.7
2018-04-08T18:36:12.308Z,15.5
2018-04-08T18:41:09.284Z,15.2
2018-04-08T18:46:09.244Z,15.2
2018-04-08T18:51:09.261Z,15.1
2018-04-08T18:56:18.305Z,15
2018-04-08T19:01:19.261Z,14.8
2018-04-08T19:06:21.229Z,14.8
2018-04-08T19:11:24.233Z,14.7
2018-04-08T19:16:23.229Z,14.5
2018-04-08T19:21:24.170Z,14.3
2018-04-08T19:26:36.319Z,14.1
2018-04-08T19:31:36.270Z,14.1
2018-04-08T19:36:37.204Z,14
2018-04-08T19:41:36.233Z,14
2018-04-08T19:46:36.166Z,13.9
2018-04-08T19:51:38.134Z,13.8
2018-04-08T19:56:37.082Z,13.6
2018-04-08T20:01:45.183Z,13.4
2018-04-08T20:06:45.933Z,13.2
2018-04-08T20:11:51.201Z,13.2
2018-04-08T20:16:52.154Z,13
2018-04-08T20:21:51.156Z,12.7
2018-04-08T20:26:51.066Z,12.9
2018-04-08T20:32:04.183Z,12.8
2018-04-08T20:37:05.137Z,12.5
2018-04-08T20:42:06.125Z,12.6
2018-04-08T20:47:04.117Z,12.4
2018-04-08T20:52:05.057Z,12.3
2018-04-08T20:57:04.045Z,12.2
2018-04-08T21:02:22.235Z,12.2
2018-04-08T21:07:22.149Z,12.1
2018-04-08T21:12:23.140Z,11.9
2018-04-08T21:17:22.115Z,11.8
2018-04-08T21:22:23.085Z,11.6
2018-04-08T21:27:24.034Z,11.6
2018-04-08T21:32:31.079Z,11.5
2018-04-08T21:37:30.062Z,11.4
2018-04-08T21:42:32.273Z,11.3
2018-04-08T21:47:32.015Z,11.3
2018-04-08T21:52:31.984Z,11.2
2018-04-08T21:57:30.962Z,11.1
2018-04-08T22:02:41.077Z,11
2018-04-08T22:07:41.991Z,10.9
2018-04-08T22:12:41.972Z,10.7
2018-04-08T22:17:47.033Z,10.6
2018-04-08T22:22:47.963Z,10.5
2018-04-08T22:27:46.950Z,10.5
2018-04-08T22:32:53.954Z,10.5
2018-04-08T22:37:52.961Z,10.5
2018-04-08T22:43:00.010Z,10.5
2018-04-08T22:48:01.980Z,10.4
2018-04-08T22:52:59.945Z,10.2
2018-04-08T22:58:00.894Z,10
2018-04-08T23:03:08.660Z,10
2018-04-08T23:08:07.931Z,10
2018-04-08T23:13:08.877Z,9.8
2018-04-08T23:18:19.969Z,9.8
2018-04-08T23:23:17.925Z,9.7
2018-04-08T23:28:17.911Z,9.7
2018-04-08T23:33:18.857Z,9.5
2018-04-08T23:38:24.943Z,9.5
2018-04-08T23:43:25.870Z,9.4
2018-04-08T23:48:28.893Z,9.3
2018-04-08T23:53:27.914Z,9.2
2018-04-08T23:58:28.868Z,9
